PWSweather.com
Personal Weather Stations
Station Observations
PRATO
PratoIT 59100

PratoIT 59100

Lat: 43.8956799, Lon: 11.0845155

Elevation: 164

Station Type: Davis Vantage Vue

http://www.meteoprato.it

High Low Average
Temperature 50.8°F10.4°F 40.8°F4.9°F 47.2°F8.4°F
Dew Point 39.2°F4.0°F 33.3°F0.7°F 36.9°F2.7°F
Winds 17.9 mph -28.8 mph - Calm Calm 8.4 mph 13.5 mph
Wind Gusts 33.0 mph53.1 mph -- 16.8 mph27.0 mph
Humidity 87% 57% 68%
Pressure 30.44 in1030.80 in 30.18 in1022.00 in -
Precipitation 0.00 in0.00 in - -
Hour Temp Dew Point Humidity Winds Wind Gusts Pressure Precip Precip Rate Daily Precip Total
12:00 AM 46.3°F7.9°C 38.8°F3.8°C 75% 0.6 mph NE1.0 kmh NE 6.0 mph9.7 kmh 30.19 in1022.4 mb 0.00 in0.0 mm 0.00 in0.0 mm 0.00 in0.0 mm
12:05 AM 45.9°F7.7°C 38.8°F3.8°C 76% 1.6 mph NE2.6 kmh NE 6.0 mph9.7 kmh 30.19 in1022.4 mb 0.00 in0.0 mm 0.00 in0.0 mm 0.00 in0.0 mm
12:10 AM 45.6°F7.6°C 38.8°F3.8°C 77% 1.7 mph NE2.7 kmh NE 4.0 mph6.4 kmh 30.19 in1022.4 mb 0.00 in0.0 mm 0.00 in0.0 mm 0.00 in0.0 mm
12:15 AM 45.3°F7.4°C 38.8°F3.8°C 78% 0.7 mph 1.1 kmh -- 30.19 in1022.4 mb 0.00 in0.0 mm 0.00 in0.0 mm 0.00 in0.0 mm
12:20 AM 45.0°F7.2°C 38.6°F3.7°C 78% 0.1 mph NE0.2 kmh NE 3.0 mph4.8 kmh 30.19 in1022.4 mb 0.00 in0.0 mm 0.00 in0.0 mm 0.00 in0.0 mm
12:25 AM 44.6°F7.0°C 38.5°F3.6°C 79% 0.7 mph NE1.1 kmh NE 5.0 mph8.0 kmh 30.19 in1022.4 mb 0.00 in0.0 mm 0.00 in0.0 mm 0.00 in0.0 mm
12:30 AM 44.4°F6.9°C 38.6°F3.7°C 80% 1.8 mph NE2.9 kmh NE 5.0 mph8.0 kmh 30.19 in1022.4 mb 0.00 in0.0 mm 0.00 in0.0 mm 0.00 in0.0 mm
12:35 AM 44.3°F6.8°C 38.5°F3.6°C 80% 2.7 mph NE4.3 kmh NE 5.0 mph8.0 kmh 30.19 in1022.4 mb 0.00 in0.0 mm 0.00 in0.0 mm 0.00 in0.0 mm
12:40 AM 44.2°F6.8°C 38.4°F3.6°C 80% 3.0 mph NE4.8 kmh NE 5.0 mph8.0 kmh 30.18 in1022.0 mb 0.00 in0.0 mm 0.00 in0.0 mm 0.00 in0.0 mm
12:45 AM 44.1°F6.7°C 38.3°F3.5°C 80% 3.0 mph NE4.8 kmh NE 6.0 mph9.7 kmh 30.18 in1022.0 mb 0.00 in0.0 mm 0.00 in0.0 mm 0.00 in0.0 mm
12:50 AM 44.0°F6.7°C 38.5°F3.6°C 81% 3.3 mph NE5.3 kmh NE 6.0 mph9.7 kmh 30.18 in1022.0 mb 0.00 in0.0 mm 0.00 in0.0 mm 0.00 in0.0 mm
12:55 AM 44.0°F6.7°C 38.5°F3.6°C 81% 3.4 mph NE5.5 kmh NE 6.0 mph9.7 kmh 30.18 in1022.0 mb 0.00 in0.0 mm 0.00 in0.0 mm 0.00 in0.0 mm
01:00 AM 44.1°F6.7°C 38.6°F3.7°C 81% 3.1 mph NE5.0 kmh NE 5.0 mph8.0 kmh 30.19 in1022.4 mb 0.00 in0.0 mm 0.00 in0.0 mm 0.00 in0.0 mm
01:05 AM 44.3°F6.8°C 38.5°F3.6°C 80% 3.0 mph NE4.8 kmh NE 5.0 mph8.0 kmh 30.18 in1022.0 mb 0.00 in0.0 mm 0.00 in0.0 mm 0.00 in0.0 mm
01:10 AM 44.6°F7.0°C 38.8°F3.8°C 80% 3.0 mph NE4.8 kmh NE 6.0 mph9.7 kmh 30.18 in1022.0 mb 0.00 in0.0 mm 0.00 in0.0 mm 0.00 in0.0 mm
01:15 AM 44.8°F7.1°C 38.7°F3.7°C 79% 3.0 mph NE4.8 kmh NE 6.0 mph9.7 kmh 30.18 in1022.0 mb 0.00 in0.0 mm 0.00 in0.0 mm 0.00 in0.0 mm
01:20 AM 44.7°F7.1°C 38.9°F3.8°C 80% 2.9 mph NE4.7 kmh NE 6.0 mph9.7 kmh 30.19 in1022.4 mb 0.00 in0.0 mm 0.00 in0.0 mm 0.00 in0.0 mm
01:25 AM 44.3°F6.8°C 38.2°F3.4°C 79% 2.2 mph N3.5 kmh N 4.0 mph6.4 kmh 30.18 in1022.0 mb 0.00 in0.0 mm 0.00 in0.0 mm 0.00 in0.0 mm
01:30 AM 43.7°F6.5°C 37.9°F3.3°C 80% 1.1 mph WSW1.8 kmh WSW 4.0 mph6.4 kmh 30.19 in1022.4 mb 0.00 in0.0 mm 0.00 in0.0 mm 0.00 in0.0 mm
01:35 AM 43.1°F6.2°C 37.7°F3.2°C 81% 0.3 mph WSW0.5 kmh WSW 3.0 mph4.8 kmh 30.19 in1022.4 mb 0.00 in0.0 mm 0.00 in0.0 mm 0.00 in0.0 mm
01:40 AM 42.8°F6.0°C 38.0°F3.3°C 83% 0.3 mph WSW0.5 kmh WSW 4.0 mph6.4 kmh 30.19 in1022.4 mb 0.00 in0.0 mm 0.00 in0.0 mm 0.00 in0.0 mm
01:45 AM 42.8°F6.0°C 38.0°F3.3°C 83% 1.3 mph WSW2.1 kmh WSW 4.0 mph6.4 kmh 30.19 in1022.4 mb 0.00 in0.0 mm 0.00 in0.0 mm 0.00 in0.0 mm
01:50 AM 42.8°F6.0°C 38.0°F3.3°C 83% 1.6 mph WSW2.6 kmh WSW 4.0 mph6.4 kmh 30.19 in1022.4 mb 0.00 in0.0 mm 0.00 in0.0 mm 0.00 in0.0 mm
01:55 AM 42.7°F5.9°C 37.9°F3.3°C 83% 1.1 mph WSW1.8 kmh WSW 3.0 mph4.8 kmh 30.19 in1022.4 mb 0.00 in0.0 mm 0.00 in0.0 mm 0.00 in0.0 mm
02:00 AM 42.7°F5.9°C 38.2°F3.4°C 84% 0.8 mph WSW1.3 kmh WSW 2.0 mph3.2 kmh 30.19 in1022.4 mb 0.00 in0.0 mm 0.00 in0.0 mm 0.00 in0.0 mm
02:05 AM 43.1°F6.2°C 38.3°F3.5°C 83% 0.3 mph NE0.5 kmh NE 5.0 mph8.0 kmh 30.19 in1022.4 mb 0.00 in0.0 mm 0.00 in0.0 mm 0.00 in0.0 mm
02:10 AM 42.7°F5.9°C 37.9°F3.3°C 83% 0.4 mph NE0.6 kmh NE 5.0 mph8.0 kmh 30.20 in1022.7 mb 0.00 in0.0 mm 0.00 in0.0 mm 0.00 in0.0 mm
02:15 AM 42.5°F5.8°C 38.0°F3.3°C 84% 0.5 mph NE0.8 kmh NE 3.0 mph4.8 kmh 30.20 in1022.7 mb 0.00 in0.0 mm 0.00 in0.0 mm 0.00 in0.0 mm
02:20 AM 42.3°F5.7°C 37.8°F3.2°C 84% 0.1 mph 0.2 kmh -- 30.20 in1022.7 mb 0.00 in0.0 mm 0.00 in0.0 mm 0.00 in0.0 mm
02:25 AM 42.2°F5.7°C 38.0°F3.3°C 85% Calm Calm -- 30.20 in1022.7 mb 0.00 in0.0 mm 0.00 in0.0 mm 0.00 in0.0 mm
02:30 AM 42.2°F5.7°C 38.0°F3.3°C 85% Calm Calm -- 30.20 in1022.7 mb 0.00 in0.0 mm 0.00 in0.0 mm 0.00 in0.0 mm
02:35 AM 42.1°F5.6°C 37.9°F3.3°C 85% Calm Calm -- 30.20 in1022.7 mb 0.00 in0.0 mm 0.00 in0.0 mm 0.00 in0.0 mm
02:40 AM 42.1°F5.6°C 38.2°F3.4°C 86% Calm Calm -- 30.20 in1022.7 mb 0.00 in0.0 mm 0.00 in0.0 mm 0.00 in0.0 mm
02:45 AM 41.9°F5.5°C 37.7°F3.2°C 85% Calm Calm -- 30.20 in1022.7 mb 0.00 in0.0 mm 0.00 in0.0 mm 0.00 in0.0 mm
02:50 AM 41.7°F5.4°C 37.8°F3.2°C 86% Calm Calm 1.0 mph1.6 kmh 30.19 in1022.4 mb 0.00 in0.0 mm 0.00 in0.0 mm 0.00 in0.0 mm
02:55 AM 41.9°F5.5°C 38.3°F3.5°C 87% 0.2 mph NE0.3 kmh NE 4.0 mph6.4 kmh 30.19 in1022.4 mb 0.00 in0.0 mm 0.00 in0.0 mm 0.00 in0.0 mm
03:00 AM 43.4°F6.3°C 39.2°F4.0°C 85% 1.0 mph NE1.6 kmh NE 6.0 mph9.7 kmh 30.19 in1022.4 mb 0.00 in0.0 mm 0.00 in0.0 mm 0.00 in0.0 mm
03:05 AM 44.5°F6.9°C 39.0°F3.9°C 81% 2.3 mph NE3.7 kmh NE 8.0 mph12.9 kmh 30.19 in1022.4 mb 0.00 in0.0 mm 0.00 in0.0 mm 0.00 in0.0 mm
03:10 AM 45.4°F7.4°C 38.9°F3.8°C 78% 3.2 mph NE5.1 kmh NE 9.0 mph14.5 kmh 30.19 in1022.4 mb 0.00 in0.0 mm 0.00 in0.0 mm 0.00 in0.0 mm
03:15 AM 45.7°F7.6°C 38.9°F3.8°C 77% 3.2 mph NE5.1 kmh NE 9.0 mph14.5 kmh 30.18 in1022.0 mb 0.00 in0.0 mm 0.00 in0.0 mm 0.00 in0.0 mm
03:20 AM 46.1°F7.8°C 39.0°F3.9°C 76% 2.9 mph NE4.7 kmh NE 8.0 mph12.9 kmh 30.19 in1022.4 mb 0.00 in0.0 mm 0.00 in0.0 mm 0.00 in0.0 mm
03:25 AM 46.0°F7.8°C 38.5°F3.6°C 75% 2.3 mph NE3.7 kmh NE 6.0 mph9.7 kmh 30.19 in1022.4 mb 0.00 in0.0 mm 0.00 in0.0 mm 0.00 in0.0 mm
03:30 AM 45.7°F7.6°C 38.6°F3.7°C 76% 1.1 mph WSW1.8 kmh WSW 3.0 mph4.8 kmh 30.19 in1022.4 mb 0.00 in0.0 mm 0.00 in0.0 mm 0.00 in0.0 mm
03:35 AM 45.7°F7.6°C 38.6°F3.7°C 76% 0.2 mph N0.3 kmh N 5.0 mph8.0 kmh 30.18 in1022.0 mb 0.00 in0.0 mm 0.00 in0.0 mm 0.00 in0.0 mm
03:40 AM 45.8°F7.7°C 38.7°F3.7°C 76% 0.3 mph NE0.5 kmh NE 5.0 mph8.0 kmh 30.18 in1022.0 mb 0.00 in0.0 mm 0.00 in0.0 mm 0.00 in0.0 mm
03:45 AM 45.7°F7.6°C 38.6°F3.7°C 76% 0.8 mph NE1.3 kmh NE 7.0 mph11.3 kmh 30.18 in1022.0 mb 0.00 in0.0 mm 0.00 in0.0 mm 0.00 in0.0 mm
03:50 AM 45.7°F7.6°C 38.6°F3.7°C 76% 1.0 mph NE1.6 kmh NE 7.0 mph11.3 kmh 30.19 in1022.4 mb 0.00 in0.0 mm 0.00 in0.0 mm 0.00 in0.0 mm
03:55 AM 45.7°F7.6°C 38.6°F3.7°C 76% 1.0 mph N1.6 kmh N 6.0 mph9.7 kmh 30.18 in1022.0 mb 0.00 in0.0 mm 0.00 in0.0 mm 0.00 in0.0 mm
04:00 AM 45.2°F7.3°C 37.7°F3.2°C 75% 1.2 mph WSW1.9 kmh WSW 6.0 mph9.7 kmh 30.19 in1022.4 mb 0.00 in0.0 mm 0.00 in0.0 mm 0.00 in0.0 mm
04:05 AM 43.9°F6.6°C 36.8°F2.7°C 76% 1.2 mph NW1.9 kmh NW 4.0 mph6.4 kmh 30.19 in1022.4 mb 0.00 in0.0 mm 0.00 in0.0 mm 0.00 in0.0 mm
04:10 AM 42.5°F5.8°C 36.4°F2.4°C 79% 1.0 mph N1.6 kmh N 4.0 mph6.4 kmh 30.19 in1022.4 mb 0.00 in0.0 mm 0.00 in0.0 mm 0.00 in0.0 mm
04:15 AM 41.5°F5.3°C 36.4°F2.4°C 82% 1.0 mph N1.6 kmh N 4.0 mph6.4 kmh 30.19 in1022.4 mb 0.00 in0.0 mm 0.00 in0.0 mm 0.00 in0.0 mm
04:20 AM 41.0°F5.0°C 36.5°F2.5°C 84% 0.9 mph NNE1.4 kmh NNE 2.0 mph3.2 kmh 30.19 in1022.4 mb 0.00 in0.0 mm 0.00 in0.0 mm 0.00 in0.0 mm
04:25 AM 40.8°F4.9°C 36.3°F2.4°C 84% 0.4 mph 0.6 kmh -- 30.19 in1022.4 mb 0.00 in0.0 mm 0.00 in0.0 mm 0.00 in0.0 mm
04:30 AM 41.3°F5.2°C 37.1°F2.8°C 85% Calm Calm -- 30.19 in1022.4 mb 0.00 in0.0 mm 0.00 in0.0 mm 0.00 in0.0 mm
04:35 AM 41.3°F5.2°C 37.1°F2.8°C 85% Calm Calm 2.0 mph3.2 kmh 30.19 in1022.4 mb 0.00 in0.0 mm 0.00 in0.0 mm 0.00 in0.0 mm
04:40 AM 41.8°F5.4°C 37.6°F3.1°C 85% Calm Calm 2.0 mph3.2 kmh 30.19 in1022.4 mb 0.00 in0.0 mm 0.00 in0.0 mm 0.00 in0.0 mm
04:45 AM 43.3°F6.3°C 38.8°F3.8°C 84% 0.1 mph NE0.2 kmh NE 6.0 mph9.7 kmh 30.18 in1022.0 mb 0.00 in0.0 mm 0.00 in0.0 mm 0.00 in0.0 mm
04:50 AM 44.3°F6.8°C 38.5°F3.6°C 80% 0.6 mph NE1.0 kmh NE 10.0 mph16.1 kmh 30.18 in1022.0 mb 0.00 in0.0 mm 0.00 in0.0 mm 0.00 in0.0 mm
04:55 AM 45.2°F7.3°C 38.7°F3.7°C 78% 1.4 mph NE2.3 kmh NE 10.0 mph16.1 kmh 30.18 in1022.0 mb 0.00 in0.0 mm 0.00 in0.0 mm 0.00 in0.0 mm
05:00 AM 45.5°F7.5°C 38.7°F3.7°C 77% 2.1 mph NE3.4 kmh NE 8.0 mph12.9 kmh 30.19 in1022.4 mb 0.00 in0.0 mm 0.00 in0.0 mm 0.00 in0.0 mm
05:05 AM 45.8°F7.7°C 38.7°F3.7°C 76% 2.4 mph NE3.9 kmh NE 8.0 mph12.9 kmh 30.19 in1022.4 mb 0.00 in0.0 mm 0.00 in0.0 mm 0.00 in0.0 mm
05:10 AM 45.9°F7.7°C 38.4°F3.6°C 75% 2.5 mph NE4.0 kmh NE 8.0 mph12.9 kmh 30.19 in1022.4 mb 0.00 in0.0 mm 0.00 in0.0 mm 0.00 in0.0 mm
05:15 AM 45.8°F7.7°C 38.3°F3.5°C 75% 2.1 mph NE3.4 kmh NE 8.0 mph12.9 kmh 30.19 in1022.4 mb 0.00 in0.0 mm 0.00 in0.0 mm 0.00 in0.0 mm
05:20 AM 46.0°F7.8°C 38.2°F3.4°C 74% 1.3 mph NE2.1 kmh NE 7.0 mph11.3 kmh 30.19 in1022.4 mb 0.00 in0.0 mm 0.00 in0.0 mm 0.00 in0.0 mm
05:25 AM 46.0°F7.8°C 38.2°F3.4°C 74% 1.4 mph NE2.3 kmh NE 7.0 mph11.3 kmh 30.19 in1022.4 mb 0.00 in0.0 mm 0.00 in0.0 mm 0.00 in0.0 mm
05:30 AM 46.0°F7.8°C 38.2°F3.4°C 74% 1.6 mph NE2.6 kmh NE 5.0 mph8.0 kmh 30.19 in1022.4 mb 0.00 in0.0 mm 0.00 in0.0 mm 0.00 in0.0 mm
05:35 AM 46.1°F7.8°C 38.3°F3.5°C 74% 1.3 mph NE2.1 kmh NE 9.0 mph14.5 kmh 30.19 in1022.4 mb 0.00 in0.0 mm 0.00 in0.0 mm 0.00 in0.0 mm
05:40 AM 46.3°F7.9°C 38.1°F3.4°C 73% 1.3 mph NE2.1 kmh NE 9.0 mph14.5 kmh 30.19 in1022.4 mb 0.00 in0.0 mm 0.00 in0.0 mm 0.00 in0.0 mm
05:45 AM 46.2°F7.9°C 37.7°F3.2°C 72% 1.5 mph NE2.4 kmh NE 4.0 mph6.4 kmh 30.19 in1022.4 mb 0.00 in0.0 mm 0.00 in0.0 mm 0.00 in0.0 mm
05:50 AM 45.7°F7.6°C 37.5°F3.1°C 73% 1.2 mph NE1.9 kmh NE 2.0 mph3.2 kmh 30.19 in1022.4 mb 0.00 in0.0 mm 0.00 in0.0 mm 0.00 in0.0 mm
05:55 AM 45.4°F7.4°C 37.6°F3.1°C 74% 0.4 mph 0.6 kmh -- 30.19 in1022.4 mb 0.00 in0.0 mm 0.00 in0.0 mm 0.00 in0.0 mm
06:00 AM 45.3°F7.4°C 37.5°F3.1°C 74% Calm Calm 4.0 mph6.4 kmh 30.19 in1022.4 mb 0.00 in0.0 mm 0.00 in0.0 mm 0.00 in0.0 mm
06:05 AM 45.5°F7.5°C 37.7°F3.2°C 74% 0.3 mph NE0.5 kmh NE 5.0 mph8.0 kmh 30.19 in1022.4 mb 0.00 in0.0 mm 0.00 in0.0 mm 0.00 in0.0 mm
06:10 AM 45.7°F7.6°C 37.9°F3.3°C 74% 0.9 mph NE1.4 kmh NE 9.0 mph14.5 kmh 30.19 in1022.4 mb 0.00 in0.0 mm 0.00 in0.0 mm 0.00 in0.0 mm
06:15 AM 45.7°F7.6°C 37.5°F3.1°C 73% 1.6 mph NE2.6 kmh NE 9.0 mph14.5 kmh 30.20 in1022.7 mb 0.00 in0.0 mm 0.00 in0.0 mm 0.00 in0.0 mm
06:20 AM 45.9°F7.7°C 37.7°F3.2°C 73% 2.0 mph NE3.2 kmh NE 9.0 mph14.5 kmh 30.20 in1022.7 mb 0.00 in0.0 mm 0.00 in0.0 mm 0.00 in0.0 mm
06:25 AM 46.0°F7.8°C 37.8°F3.2°C 73% 2.4 mph NE3.9 kmh NE 9.0 mph14.5 kmh 30.20 in1022.7 mb 0.00 in0.0 mm 0.00 in0.0 mm 0.00 in0.0 mm
06:30 AM 46.2°F7.9°C 37.7°F3.2°C 72% 2.9 mph NE4.7 kmh NE 9.0 mph14.5 kmh 30.20 in1022.7 mb 0.00 in0.0 mm 0.00 in0.0 mm 0.00 in0.0 mm
06:35 AM 46.4°F8.0°C 37.5°F3.1°C 71% 2.7 mph NE4.3 kmh NE 11.0 mph17.7 kmh 30.20 in1022.7 mb 0.00 in0.0 mm 0.00 in0.0 mm 0.00 in0.0 mm
06:40 AM 46.4°F8.0°C 37.9°F3.3°C 72% 2.7 mph NE4.3 kmh NE 11.0 mph17.7 kmh 30.20 in1022.7 mb 0.00 in0.0 mm 0.00 in0.0 mm 0.00 in0.0 mm
06:45 AM 46.5°F8.1°C 37.6°F3.1°C 71% 3.3 mph NE5.3 kmh NE 7.0 mph11.3 kmh 30.20 in1022.7 mb 0.00 in0.0 mm 0.00 in0.0 mm 0.00 in0.0 mm
06:50 AM 46.6°F8.1°C 37.7°F3.2°C 71% 3.8 mph NE6.1 kmh NE 7.0 mph11.3 kmh 30.21 in1023.0 mb 0.00 in0.0 mm 0.00 in0.0 mm 0.00 in0.0 mm
06:55 AM 46.7°F8.2°C 37.8°F3.2°C 71% 3.5 mph NE5.6 kmh NE 7.0 mph11.3 kmh 30.21 in1023.0 mb 0.00 in0.0 mm 0.00 in0.0 mm 0.00 in0.0 mm
07:00 AM 46.4°F8.0°C 37.5°F3.1°C 71% 2.4 mph NE3.9 kmh NE 7.0 mph11.3 kmh 30.21 in1023.0 mb 0.00 in0.0 mm 0.00 in0.0 mm 0.00 in0.0 mm
07:05 AM 46.3°F7.9°C 37.8°F3.2°C 72% 1.4 mph NE2.3 kmh NE 5.0 mph8.0 kmh 30.21 in1023.0 mb 0.00 in0.0 mm 0.00 in0.0 mm 0.00 in0.0 mm
07:10 AM 46.3°F7.9°C 37.8°F3.2°C 72% 1.0 mph NE1.6 kmh NE 5.0 mph8.0 kmh 30.21 in1023.0 mb 0.00 in0.0 mm 0.00 in0.0 mm 0.00 in0.0 mm
07:15 AM 46.4°F8.0°C 37.9°F3.3°C 72% 1.5 mph NE2.4 kmh NE 11.0 mph17.7 kmh 30.21 in1023.0 mb 0.00 in0.0 mm 0.00 in0.0 mm 0.00 in0.0 mm
07:20 AM 46.5°F8.1°C 38.0°F3.3°C 72% 2.1 mph NE3.4 kmh NE 11.0 mph17.7 kmh 30.21 in1023.0 mb 0.00 in0.0 mm 0.00 in0.0 mm 0.00 in0.0 mm
07:25 AM 46.5°F8.1°C 38.0°F3.3°C 72% 2.1 mph NE3.4 kmh NE 8.0 mph12.9 kmh 30.21 in1023.0 mb 0.00 in0.0 mm 0.00 in0.0 mm 0.00 in0.0 mm
07:30 AM 46.6°F8.1°C 38.1°F3.4°C 72% 2.0 mph NE3.2 kmh NE 9.0 mph14.5 kmh 30.21 in1023.0 mb 0.00 in0.0 mm 0.00 in0.0 mm 0.00 in0.0 mm
07:35 AM 46.6°F8.1°C 38.1°F3.4°C 72% 2.3 mph NE3.7 kmh NE 11.0 mph17.7 kmh 30.22 in1023.4 mb 0.00 in0.0 mm 0.00 in0.0 mm 0.00 in0.0 mm
07:40 AM 46.6°F8.1°C 38.1°F3.4°C 72% 3.1 mph NE5.0 kmh NE 12.0 mph19.3 kmh 30.22 in1023.4 mb 0.00 in0.0 mm 0.00 in0.0 mm 0.00 in0.0 mm
07:45 AM 46.7°F8.2°C 37.8°F3.2°C 71% 4.3 mph NE6.9 kmh NE 14.0 mph22.5 kmh 30.22 in1023.4 mb 0.00 in0.0 mm 0.00 in0.0 mm 0.00 in0.0 mm
07:50 AM 46.7°F8.2°C 38.1°F3.4°C 72% 5.8 mph NE9.3 kmh NE 14.0 mph22.5 kmh 30.22 in1023.4 mb 0.00 in0.0 mm 0.00 in0.0 mm 0.00 in0.0 mm
07:55 AM 46.7°F8.2°C 38.1°F3.4°C 72% 6.2 mph NE10.0 kmh NE 12.0 mph19.3 kmh 30.22 in1023.4 mb 0.00 in0.0 mm 0.00 in0.0 mm 0.00 in0.0 mm
08:00 AM 46.7°F8.2°C 38.1°F3.4°C 72% 5.4 mph NE8.7 kmh NE 11.0 mph17.7 kmh 30.22 in1023.4 mb 0.00 in0.0 mm 0.00 in0.0 mm 0.00 in0.0 mm
08:05 AM 46.6°F8.1°C 38.1°F3.4°C 72% 5.0 mph NE8.0 kmh NE 11.0 mph17.7 kmh 30.22 in1023.4 mb 0.00 in0.0 mm 0.00 in0.0 mm 0.00 in0.0 mm
08:10 AM 46.6°F8.1°C 38.1°F3.4°C 72% 4.7 mph NE7.6 kmh NE 13.0 mph20.9 kmh 30.23 in1023.7 mb 0.00 in0.0 mm 0.00 in0.0 mm 0.00 in0.0 mm
08:15 AM 46.6°F8.1°C 38.1°F3.4°C 72% 4.8 mph NE7.7 kmh NE 13.0 mph20.9 kmh 30.23 in1023.7 mb 0.00 in0.0 mm 0.00 in0.0 mm 0.00 in0.0 mm
08:20 AM 46.7°F8.2°C 38.1°F3.4°C 72% 5.6 mph NE9.0 kmh NE 14.0 mph22.5 kmh 30.23 in1023.7 mb 0.00 in0.0 mm 0.00 in0.0 mm 0.00 in0.0 mm
08:25 AM 46.7°F8.2°C 38.1°F3.4°C 72% 6.1 mph NE9.8 kmh NE 14.0 mph22.5 kmh 30.23 in1023.7 mb 0.00 in0.0 mm 0.00 in0.0 mm 0.00 in0.0 mm
08:30 AM 46.8°F8.2°C 38.2°F3.4°C 72% 6.6 mph NE10.6 kmh NE 14.0 mph22.5 kmh 30.23 in1023.7 mb 0.00 in0.0 mm 0.00 in0.0 mm 0.00 in0.0 mm
08:35 AM 46.8°F8.2°C 37.9°F3.3°C 71% 7.1 mph NE11.4 kmh NE 16.0 mph25.7 kmh 30.23 in1023.7 mb 0.00 in0.0 mm 0.00 in0.0 mm 0.00 in0.0 mm
08:40 AM 46.9°F8.3°C 38.0°F3.3°C 71% 7.6 mph NE12.2 kmh NE 16.0 mph25.7 kmh 30.23 in1023.7 mb 0.00 in0.0 mm 0.00 in0.0 mm 0.00 in0.0 mm
08:45 AM 46.9°F8.3°C 38.0°F3.3°C 71% 8.0 mph NE12.9 kmh NE 13.0 mph20.9 kmh 30.23 in1023.7 mb 0.00 in0.0 mm 0.00 in0.0 mm 0.00 in0.0 mm
08:50 AM 46.9°F8.3°C 38.0°F3.3°C 71% 7.5 mph NE12.1 kmh NE 14.0 mph22.5 kmh 30.23 in1023.7 mb 0.00 in0.0 mm 0.00 in0.0 mm 0.00 in0.0 mm
08:55 AM 47.1°F8.4°C 38.2°F3.4°C 71% 6.9 mph NE11.1 kmh NE 17.0 mph27.4 kmh 30.23 in1023.7 mb 0.00 in0.0 mm 0.00 in0.0 mm 0.00 in0.0 mm
09:00 AM 47.2°F8.4°C 37.9°F3.3°C 70% 7.2 mph NE11.6 kmh NE 17.0 mph27.4 kmh 30.23 in1023.7 mb 0.00 in0.0 mm 0.00 in0.0 mm 0.00 in0.0 mm
09:05 AM 47.3°F8.5°C 38.0°F3.3°C 70% 8.1 mph NE13.0 kmh NE 15.0 mph24.1 kmh 30.24 in1024.0 mb 0.00 in0.0 mm 0.00 in0.0 mm 0.00 in0.0 mm
09:10 AM 47.4°F8.6°C 38.1°F3.4°C 70% 8.3 mph NE13.4 kmh NE 14.0 mph22.5 kmh 30.24 in1024.0 mb 0.00 in0.0 mm 0.00 in0.0 mm 0.00 in0.0 mm
09:15 AM 47.5°F8.6°C 37.8°F3.2°C 69% 8.0 mph NE12.9 kmh NE 16.0 mph25.7 kmh 30.24 in1024.0 mb 0.00 in0.0 mm 0.00 in0.0 mm 0.00 in0.0 mm
09:20 AM 47.7°F8.7°C 37.7°F3.2°C 68% 8.3 mph NE13.4 kmh NE 16.0 mph25.7 kmh 30.24 in1024.0 mb 0.00 in0.0 mm 0.00 in0.0 mm 0.00 in0.0 mm
09:25 AM 47.7°F8.7°C 37.7°F3.2°C 68% 8.2 mph NE13.2 kmh NE 14.0 mph22.5 kmh 30.25 in1024.4 mb 0.00 in0.0 mm 0.00 in0.0 mm 0.00 in0.0 mm
09:30 AM 47.8°F8.8°C 37.7°F3.2°C 68% 7.4 mph NE11.9 kmh NE 14.0 mph22.5 kmh 30.24 in1024.0 mb 0.00 in0.0 mm 0.00 in0.0 mm 0.00 in0.0 mm
09:35 AM 47.9°F8.8°C 37.8°F3.2°C 68% 7.0 mph NE11.3 kmh NE 14.0 mph22.5 kmh 30.24 in1024.0 mb 0.00 in0.0 mm 0.00 in0.0 mm 0.00 in0.0 mm
09:40 AM 48.0°F8.9°C 37.9°F3.3°C 68% 6.7 mph NE10.8 kmh NE 14.0 mph22.5 kmh 30.24 in1024.0 mb 0.00 in0.0 mm 0.00 in0.0 mm 0.00 in0.0 mm
09:45 AM 48.1°F8.9°C 37.7°F3.2°C 67% 6.2 mph NE10.0 kmh NE 14.0 mph22.5 kmh 30.24 in1024.0 mb 0.00 in0.0 mm 0.00 in0.0 mm 0.00 in0.0 mm
09:50 AM 48.2°F9.0°C 37.8°F3.2°C 67% 6.1 mph NE9.8 kmh NE 13.0 mph20.9 kmh 30.24 in1024.0 mb 0.00 in0.0 mm 0.00 in0.0 mm 0.00 in0.0 mm
09:55 AM 48.4°F9.1°C 37.9°F3.3°C 67% 6.1 mph NE9.8 kmh NE 13.0 mph20.9 kmh 30.24 in1024.0 mb 0.00 in0.0 mm 0.00 in0.0 mm 0.00 in0.0 mm
10:00 AM 48.6°F9.2°C 37.7°F3.2°C 66% 6.2 mph NE10.0 kmh NE 17.0 mph27.4 kmh 30.24 in1024.0 mb 0.00 in0.0 mm 0.00 in0.0 mm 0.00 in0.0 mm
10:05 AM 48.8°F9.3°C 37.6°F3.1°C 65% 7.3 mph NE11.7 kmh NE 17.0 mph27.4 kmh 30.24 in1024.0 mb 0.00 in0.0 mm 0.00 in0.0 mm 0.00 in0.0 mm
10:10 AM 49.1°F9.5°C 37.8°F3.2°C 65% 8.6 mph NE13.8 kmh NE 20.0 mph32.2 kmh 30.25 in1024.4 mb 0.00 in0.0 mm 0.00 in0.0 mm 0.00 in0.0 mm
10:15 AM 49.1°F9.5°C 38.2°F3.4°C 66% 9.7 mph NE15.6 kmh NE 22.0 mph35.4 kmh 30.25 in1024.4 mb 0.00 in0.0 mm 0.00 in0.0 mm 0.00 in0.0 mm
10:20 AM 49.0°F9.4°C 38.5°F3.6°C 67% 11.3 mph NE18.2 kmh NE 22.0 mph35.4 kmh 30.25 in1024.4 mb 0.00 in0.0 mm 0.00 in0.0 mm 0.00 in0.0 mm
10:25 AM 49.1°F9.5°C 38.6°F3.7°C 67% 12.6 mph NE20.3 kmh NE 20.0 mph32.2 kmh 30.25 in1024.4 mb 0.00 in0.0 mm 0.00 in0.0 mm 0.00 in0.0 mm
10:30 AM 49.3°F9.6°C 38.4°F3.6°C 66% 12.0 mph NE19.3 kmh NE 19.0 mph30.6 kmh 30.25 in1024.4 mb 0.00 in0.0 mm 0.00 in0.0 mm 0.00 in0.0 mm
10:35 AM 49.5°F9.7°C 38.6°F3.7°C 66% 10.2 mph NE16.4 kmh NE 15.0 mph24.1 kmh 30.25 in1024.4 mb 0.00 in0.0 mm 0.00 in0.0 mm 0.00 in0.0 mm
10:40 AM 49.5°F9.7°C 38.6°F3.7°C 66% 9.0 mph NE14.5 kmh NE 18.0 mph29.0 kmh 30.25 in1024.4 mb 0.00 in0.0 mm 0.00 in0.0 mm 0.00 in0.0 mm
10:45 AM 49.6°F9.8°C 38.7°F3.7°C 66% 8.8 mph NE14.2 kmh NE 18.0 mph29.0 kmh 30.25 in1024.4 mb 0.00 in0.0 mm 0.00 in0.0 mm 0.00 in0.0 mm
10:50 AM 49.7°F9.8°C 38.4°F3.6°C 65% 8.9 mph NE14.3 kmh NE 15.0 mph24.1 kmh 30.26 in1024.7 mb 0.00 in0.0 mm 0.00 in0.0 mm 0.00 in0.0 mm
10:55 AM 49.9°F9.9°C 38.6°F3.7°C 65% 8.4 mph NE13.5 kmh NE 15.0 mph24.1 kmh 30.26 in1024.7 mb 0.00 in0.0 mm 0.00 in0.0 mm 0.00 in0.0 mm
11:00 AM 50.1°F10.1°C 38.4°F3.6°C 64% 7.7 mph NE12.4 kmh NE 18.0 mph29.0 kmh 30.26 in1024.7 mb 0.00 in0.0 mm 0.00 in0.0 mm 0.00 in0.0 mm
11:05 AM 50.3°F10.2°C 38.2°F3.4°C 63% 7.6 mph NE12.2 kmh NE 19.0 mph30.6 kmh 30.26 in1024.7 mb 0.00 in0.0 mm 0.00 in0.0 mm 0.00 in0.0 mm
11:10 AM 50.4°F10.2°C 38.3°F3.5°C 63% 8.6 mph NE13.8 kmh NE 19.0 mph30.6 kmh 30.26 in1024.7 mb 0.00 in0.0 mm 0.00 in0.0 mm 0.00 in0.0 mm
11:15 AM 50.6°F10.3°C 38.1°F3.4°C 62% 9.4 mph NE15.1 kmh NE 18.0 mph29.0 kmh 30.26 in1024.7 mb 0.00 in0.0 mm 0.00 in0.0 mm 0.00 in0.0 mm
11:20 AM 50.5°F10.3°C 38.0°F3.3°C 62% 9.2 mph NE14.8 kmh NE 19.0 mph30.6 kmh 30.26 in1024.7 mb 0.00 in0.0 mm 0.00 in0.0 mm 0.00 in0.0 mm
11:25 AM 50.8°F10.4°C 38.2°F3.4°C 62% 9.5 mph NE15.3 kmh NE 19.0 mph30.6 kmh 30.26 in1024.7 mb 0.00 in0.0 mm 0.00 in0.0 mm 0.00 in0.0 mm
11:30 AM 50.8°F10.4°C 38.2°F3.4°C 62% 9.2 mph NE14.8 kmh NE 21.0 mph33.8 kmh 30.26 in1024.7 mb 0.00 in0.0 mm 0.00 in0.0 mm 0.00 in0.0 mm
11:35 AM 50.6°F10.3°C 38.1°F3.4°C 62% 8.2 mph NE13.2 kmh NE 21.0 mph33.8 kmh 30.27 in1025.1 mb 0.00 in0.0 mm 0.00 in0.0 mm 0.00 in0.0 mm
11:40 AM 50.1°F10.1°C 38.4°F3.6°C 64% 8.5 mph NE13.7 kmh NE 18.0 mph29.0 kmh 30.27 in1025.1 mb 0.00 in0.0 mm 0.00 in0.0 mm 0.00 in0.0 mm
11:45 AM 49.7°F9.8°C 38.0°F3.3°C 64% 9.4 mph NE15.1 kmh NE 21.0 mph33.8 kmh 30.26 in1024.7 mb 0.00 in0.0 mm 0.00 in0.0 mm 0.00 in0.0 mm
11:50 AM 49.6°F9.8°C 37.9°F3.3°C 64% 10.1 mph NE16.3 kmh NE 21.0 mph33.8 kmh 30.26 in1024.7 mb 0.00 in0.0 mm 0.00 in0.0 mm 0.00 in0.0 mm
11:55 AM 49.7°F9.8°C 38.0°F3.3°C 64% 11.1 mph NE17.9 kmh NE 23.0 mph37.0 kmh 30.26 in1024.7 mb 0.00 in0.0 mm 0.00 in0.0 mm 0.00 in0.0 mm
12:00 PM 50.0°F10.0°C 37.9°F3.3°C 63% 12.2 mph NE19.6 kmh NE 23.0 mph37.0 kmh 30.26 in1024.7 mb 0.00 in0.0 mm 0.00 in0.0 mm 0.00 in0.0 mm
12:05 PM 50.2°F10.1°C 37.7°F3.2°C 62% 12.2 mph NE19.6 kmh NE 22.0 mph35.4 kmh 30.25 in1024.4 mb 0.00 in0.0 mm 0.00 in0.0 mm 0.00 in0.0 mm
12:10 PM 50.3°F10.2°C 37.8°F3.2°C 62% 11.1 mph NE17.9 kmh NE 22.0 mph35.4 kmh 30.25 in1024.4 mb 0.00 in0.0 mm 0.00 in0.0 mm 0.00 in0.0 mm
12:15 PM 50.4°F10.2°C 37.9°F3.3°C 62% 9.9 mph NE15.9 kmh NE 16.0 mph25.7 kmh 30.25 in1024.4 mb 0.00 in0.0 mm 0.00 in0.0 mm 0.00 in0.0 mm
12:20 PM 50.2°F10.1°C 37.3°F2.9°C 61% 9.0 mph NE14.5 kmh NE 19.0 mph30.6 kmh 30.25 in1024.4 mb 0.00 in0.0 mm 0.00 in0.0 mm 0.00 in0.0 mm
12:25 PM 50.3°F10.2°C 37.8°F3.2°C 62% 9.2 mph NE14.8 kmh NE 19.0 mph30.6 kmh 30.25 in1024.4 mb 0.00 in0.0 mm 0.00 in0.0 mm 0.00 in0.0 mm
12:30 PM 50.3°F10.2°C 37.4°F3.0°C 61% 10.0 mph NE16.1 kmh NE 22.0 mph35.4 kmh 30.25 in1024.4 mb 0.00 in0.0 mm 0.00 in0.0 mm 0.00 in0.0 mm
12:35 PM 50.3°F10.2°C 36.9°F2.7°C 60% 10.7 mph NE17.2 kmh NE 22.0 mph35.4 kmh 30.25 in1024.4 mb 0.00 in0.0 mm 0.00 in0.0 mm 0.00 in0.0 mm
12:40 PM 50.5°F10.3°C 37.5°F3.1°C 61% 11.7 mph NE18.8 kmh NE 20.0 mph32.2 kmh 30.25 in1024.4 mb 0.00 in0.0 mm 0.00 in0.0 mm 0.00 in0.0 mm
12:45 PM 50.4°F10.2°C 37.0°F2.8°C 60% 12.2 mph NE19.6 kmh NE 22.0 mph35.4 kmh 30.25 in1024.4 mb 0.00 in0.0 mm 0.00 in0.0 mm 0.00 in0.0 mm
12:50 PM 50.5°F10.3°C 37.1°F2.8°C 60% 13.3 mph NE21.4 kmh NE 23.0 mph37.0 kmh 30.25 in1024.4 mb 0.00 in0.0 mm 0.00 in0.0 mm 0.00 in0.0 mm
12:55 PM 50.5°F10.3°C 37.1°F2.8°C 60% 14.6 mph NE23.5 kmh NE 25.0 mph40.2 kmh 30.25 in1024.4 mb 0.00 in0.0 mm 0.00 in0.0 mm 0.00 in0.0 mm
01:00 PM 50.5°F10.3°C 37.1°F2.8°C 60% 14.4 mph NE23.2 kmh NE 25.0 mph40.2 kmh 30.25 in1024.4 mb 0.00 in0.0 mm 0.00 in0.0 mm 0.00 in0.0 mm
01:05 PM 50.4°F10.2°C 37.4°F3.0°C 61% 14.0 mph NE22.5 kmh NE 23.0 mph37.0 kmh 30.25 in1024.4 mb 0.00 in0.0 mm 0.00 in0.0 mm 0.00 in0.0 mm
01:10 PM 50.2°F10.1°C 37.3°F2.9°C 61% 13.5 mph NE21.7 kmh NE 26.0 mph41.8 kmh 30.25 in1024.4 mb 0.00 in0.0 mm 0.00 in0.0 mm 0.00 in0.0 mm
01:15 PM 50.2°F10.1°C 37.3°F2.9°C 61% 13.3 mph NE21.4 kmh NE 27.0 mph43.5 kmh 30.25 in1024.4 mb 0.00 in0.0 mm 0.00 in0.0 mm 0.00 in0.0 mm
01:20 PM 50.3°F10.2°C 37.8°F3.2°C 62% 14.1 mph NE22.7 kmh NE 27.0 mph43.5 kmh 30.25 in1024.4 mb 0.00 in0.0 mm 0.00 in0.0 mm 0.00 in0.0 mm
01:25 PM 50.3°F10.2°C 37.8°F3.2°C 62% 14.3 mph NE23.0 kmh NE 24.0 mph38.6 kmh 30.25 in1024.4 mb 0.00 in0.0 mm 0.00 in0.0 mm 0.00 in0.0 mm
01:30 PM 50.3°F10.2°C 37.8°F3.2°C 62% 13.7 mph NE22.0 kmh NE 26.0 mph41.8 kmh 30.25 in1024.4 mb 0.00 in0.0 mm 0.00 in0.0 mm 0.00 in0.0 mm
01:35 PM 49.9°F9.9°C 37.4°F3.0°C 62% 13.7 mph NE22.0 kmh NE 26.0 mph41.8 kmh 30.25 in1024.4 mb 0.00 in0.0 mm 0.00 in0.0 mm 0.00 in0.0 mm
01:40 PM 49.9°F9.9°C 37.4°F3.0°C 62% 15.0 mph NE24.1 kmh NE 30.0 mph48.3 kmh 30.24 in1024.0 mb 0.00 in0.0 mm 0.00 in0.0 mm 0.00 in0.0 mm
01:45 PM 49.9°F9.9°C 37.4°F3.0°C 62% 16.9 mph NE27.2 kmh NE 30.0 mph48.3 kmh 30.24 in1024.0 mb 0.00 in0.0 mm 0.00 in0.0 mm 0.00 in0.0 mm
01:50 PM 49.5°F9.7°C 37.4°F3.0°C 63% 17.8 mph NE28.6 kmh NE 33.0 mph53.1 kmh 30.25 in1024.4 mb 0.00 in0.0 mm 0.00 in0.0 mm 0.00 in0.0 mm
01:55 PM 49.6°F9.8°C 37.1°F2.8°C 62% 17.9 mph NE28.8 kmh NE 33.0 mph53.1 kmh 30.24 in1024.0 mb 0.00 in0.0 mm 0.00 in0.0 mm 0.00 in0.0 mm
02:00 PM 49.6°F9.8°C 37.1°F2.8°C 62% 17.6 mph NE28.3 kmh NE 29.0 mph46.7 kmh 30.25 in1024.4 mb 0.00 in0.0 mm 0.00 in0.0 mm 0.00 in0.0 mm
02:05 PM 49.6°F9.8°C 36.7°F2.6°C 61% 17.1 mph NE27.5 kmh NE 30.0 mph48.3 kmh 30.25 in1024.4 mb 0.00 in0.0 mm 0.00 in0.0 mm 0.00 in0.0 mm
02:10 PM 49.5°F9.7°C 36.6°F2.6°C 61% 17.0 mph NE27.4 kmh NE 30.0 mph48.3 kmh 30.25 in1024.4 mb 0.00 in0.0 mm 0.00 in0.0 mm 0.00 in0.0 mm
02:15 PM 49.4°F9.7°C 36.9°F2.7°C 62% 16.8 mph NE27.0 kmh NE 28.0 mph45.1 kmh 30.25 in1024.4 mb 0.00 in0.0 mm 0.00 in0.0 mm 0.00 in0.0 mm
02:20 PM 49.2°F9.6°C 36.7°F2.6°C 62% 16.0 mph NE25.7 kmh NE 28.0 mph45.1 kmh 30.25 in1024.4 mb 0.00 in0.0 mm 0.00 in0.0 mm 0.00 in0.0 mm
02:25 PM 49.1°F9.5°C 37.0°F2.8°C 63% 15.2 mph NE24.5 kmh NE 27.0 mph43.5 kmh 30.25 in1024.4 mb 0.00 in0.0 mm 0.00 in0.0 mm 0.00 in0.0 mm
02:30 PM 49.0°F9.4°C 36.9°F2.7°C 63% 14.9 mph NE24.0 kmh NE 24.0 mph38.6 kmh 30.25 in1024.4 mb 0.00 in0.0 mm 0.00 in0.0 mm 0.00 in0.0 mm
02:35 PM 48.9°F9.4°C 36.9°F2.7°C 63% 14.4 mph NE23.2 kmh NE 28.0 mph45.1 kmh 30.26 in1024.7 mb 0.00 in0.0 mm 0.00 in0.0 mm 0.00 in0.0 mm
02:40 PM 48.9°F9.4°C 36.9°F2.7°C 63% 14.0 mph NE22.5 kmh NE 30.0 mph48.3 kmh 30.25 in1024.4 mb 0.00 in0.0 mm 0.00 in0.0 mm 0.00 in0.0 mm
02:45 PM 48.9°F9.4°C 36.9°F2.7°C 63% 14.4 mph NE23.2 kmh NE 30.0 mph48.3 kmh 30.26 in1024.7 mb 0.00 in0.0 mm 0.00 in0.0 mm 0.00 in0.0 mm
02:50 PM 49.1°F9.5°C 37.0°F2.8°C 63% 14.4 mph NE23.2 kmh NE 26.0 mph41.8 kmh 30.26 in1024.7 mb 0.00 in0.0 mm 0.00 in0.0 mm 0.00 in0.0 mm
02:55 PM 49.1°F9.5°C 37.0°F2.8°C 63% 14.2 mph NE22.9 kmh NE 28.0 mph45.1 kmh 30.27 in1025.1 mb 0.00 in0.0 mm 0.00 in0.0 mm 0.00 in0.0 mm
03:00 PM 49.1°F9.5°C 37.0°F2.8°C 63% 14.6 mph NE23.5 kmh NE 28.0 mph45.1 kmh 30.27 in1025.1 mb 0.00 in0.0 mm 0.00 in0.0 mm 0.00 in0.0 mm
03:05 PM 49.2°F9.6°C 37.1°F2.8°C 63% 13.9 mph NE22.4 kmh NE 20.0 mph32.2 kmh 30.27 in1025.1 mb 0.00 in0.0 mm 0.00 in0.0 mm 0.00 in0.0 mm
03:10 PM 49.2°F9.6°C 37.1°F2.8°C 63% 12.5 mph NE20.1 kmh NE 23.0 mph37.0 kmh 30.27 in1025.1 mb 0.00 in0.0 mm 0.00 in0.0 mm 0.00 in0.0 mm
03:15 PM 49.2°F9.6°C 37.1°F2.8°C 63% 12.1 mph NE19.5 kmh NE 23.0 mph37.0 kmh 30.27 in1025.1 mb 0.00 in0.0 mm 0.00 in0.0 mm 0.00 in0.0 mm
03:20 PM 49.1°F9.5°C 37.0°F2.8°C 63% 12.3 mph NE19.8 kmh NE 23.0 mph37.0 kmh 30.27 in1025.1 mb 0.00 in0.0 mm 0.00 in0.0 mm 0.00 in0.0 mm
03:25 PM 49.1°F9.5°C 37.0°F2.8°C 63% 12.7 mph NE20.4 kmh NE 29.0 mph46.7 kmh 30.27 in1025.1 mb 0.00 in0.0 mm 0.00 in0.0 mm 0.00 in0.0 mm
03:30 PM 49.0°F9.4°C 36.9°F2.7°C 63% 13.6 mph NE21.9 kmh NE 29.0 mph46.7 kmh 30.28 in1025.4 mb 0.00 in0.0 mm 0.00 in0.0 mm 0.00 in0.0 mm
03:35 PM 48.9°F9.4°C 36.9°F2.7°C 63% 14.5 mph NE23.3 kmh NE 29.0 mph46.7 kmh 30.28 in1025.4 mb 0.00 in0.0 mm 0.00 in0.0 mm 0.00 in0.0 mm
03:40 PM 48.8°F9.3°C 36.8°F2.7°C 63% 14.8 mph NE23.8 kmh NE 22.0 mph35.4 kmh 30.28 in1025.4 mb 0.00 in0.0 mm 0.00 in0.0 mm 0.00 in0.0 mm
03:45 PM 48.8°F9.3°C 36.8°F2.7°C 63% 14.4 mph NE23.2 kmh NE 22.0 mph35.4 kmh 30.28 in1025.4 mb 0.00 in0.0 mm 0.00 in0.0 mm 0.00 in0.0 mm
03:50 PM 48.7°F9.3°C 36.7°F2.6°C 63% 13.9 mph NE22.4 kmh NE 25.0 mph40.2 kmh 30.28 in1025.4 mb 0.00 in0.0 mm 0.00 in0.0 mm 0.00 in0.0 mm
03:55 PM 48.7°F9.3°C 37.1°F2.8°C 64% 13.6 mph NE21.9 kmh NE 25.0 mph40.2 kmh 30.28 in1025.4 mb 0.00 in0.0 mm 0.00 in0.0 mm 0.00 in0.0 mm
04:00 PM 48.7°F9.3°C 36.7°F2.6°C 63% 13.3 mph NE21.4 kmh NE 28.0 mph45.1 kmh 30.28 in1025.4 mb 0.00 in0.0 mm 0.00 in0.0 mm 0.00 in0.0 mm
04:05 PM 48.7°F9.3°C 36.7°F2.6°C 63% 13.8 mph NE22.2 kmh NE 29.0 mph46.7 kmh 30.29 in1025.7 mb 0.00 in0.0 mm 0.00 in0.0 mm 0.00 in0.0 mm
04:10 PM 48.7°F9.3°C 36.3°F2.4°C 62% 15.1 mph NE24.3 kmh NE 29.0 mph46.7 kmh 30.29 in1025.7 mb 0.00 in0.0 mm 0.00 in0.0 mm 0.00 in0.0 mm
04:15 PM 48.7°F9.3°C 36.7°F2.6°C 63% 16.1 mph NE25.9 kmh NE 25.0 mph40.2 kmh 30.30 in1026.1 mb 0.00 in0.0 mm 0.00 in0.0 mm 0.00 in0.0 mm
04:20 PM 48.7°F9.3°C 36.3°F2.4°C 62% 15.6 mph NE25.1 kmh NE 25.0 mph40.2 kmh 30.30 in1026.1 mb 0.00 in0.0 mm 0.00 in0.0 mm 0.00 in0.0 mm
04:25 PM 48.6°F9.2°C 36.2°F2.3°C 62% 14.1 mph NE22.7 kmh NE 28.0 mph45.1 kmh 30.30 in1026.1 mb 0.00 in0.0 mm 0.00 in0.0 mm 0.00 in0.0 mm
04:30 PM 48.6°F9.2°C 35.7°F2.1°C 61% 13.8 mph NE22.2 kmh NE 28.0 mph45.1 kmh 30.30 in1026.1 mb 0.00 in0.0 mm 0.00 in0.0 mm 0.00 in0.0 mm
04:35 PM 48.6°F9.2°C 35.7°F2.1°C 61% 14.9 mph NE24.0 kmh NE 28.0 mph45.1 kmh 30.30 in1026.1 mb 0.00 in0.0 mm 0.00 in0.0 mm 0.00 in0.0 mm
04:40 PM 48.6°F9.2°C 35.7°F2.1°C 61% 15.3 mph NE24.6 kmh NE 27.0 mph43.5 kmh 30.31 in1026.4 mb 0.00 in0.0 mm 0.00 in0.0 mm 0.00 in0.0 mm
04:45 PM 48.5°F9.2°C 35.7°F2.1°C 61% 15.0 mph NE24.1 kmh NE 27.0 mph43.5 kmh 30.31 in1026.4 mb 0.00 in0.0 mm 0.00 in0.0 mm 0.00 in0.0 mm
04:50 PM 48.5°F9.2°C 35.7°F2.1°C 61% 14.9 mph NE24.0 kmh NE 22.0 mph35.4 kmh 30.31 in1026.4 mb 0.00 in0.0 mm 0.00 in0.0 mm 0.00 in0.0 mm
04:55 PM 48.5°F9.2°C 35.7°F2.1°C 61% 14.4 mph NE23.2 kmh NE 24.0 mph38.6 kmh 30.32 in1026.8 mb 0.00 in0.0 mm 0.00 in0.0 mm 0.00 in0.0 mm
05:00 PM 48.5°F9.2°C 35.7°F2.1°C 61% 14.3 mph NE23.0 kmh NE 24.0 mph38.6 kmh 30.32 in1026.8 mb 0.00 in0.0 mm 0.00 in0.0 mm 0.00 in0.0 mm
05:05 PM 48.3°F9.1°C 36.3°F2.4°C 63% 14.8 mph NE23.8 kmh NE 24.0 mph38.6 kmh 30.32 in1026.8 mb 0.00 in0.0 mm 0.00 in0.0 mm 0.00 in0.0 mm
05:10 PM 48.0°F8.9°C 36.4°F2.4°C 64% 14.8 mph NE23.8 kmh NE 24.0 mph38.6 kmh 30.32 in1026.8 mb 0.00 in0.0 mm 0.00 in0.0 mm 0.00 in0.0 mm
05:15 PM 47.7°F8.7°C 36.1°F2.3°C 64% 13.3 mph NE21.4 kmh NE 23.0 mph37.0 kmh 30.32 in1026.8 mb 0.00 in0.0 mm 0.00 in0.0 mm 0.00 in0.0 mm
05:20 PM 47.5°F8.6°C 35.1°F1.7°C 62% 11.6 mph NE18.7 kmh NE 23.0 mph37.0 kmh 30.33 in1027.1 mb 0.00 in0.0 mm 0.00 in0.0 mm 0.00 in0.0 mm
05:25 PM 47.3°F8.5°C 34.5°F1.4°C 61% 11.4 mph NE18.3 kmh NE 17.0 mph27.4 kmh 30.33 in1027.1 mb 0.00 in0.0 mm 0.00 in0.0 mm 0.00 in0.0 mm
05:30 PM 47.2°F8.4°C 34.8°F1.6°C 62% 11.3 mph NE18.2 kmh NE 18.0 mph29.0 kmh 30.33 in1027.1 mb 0.00 in0.0 mm 0.00 in0.0 mm 0.00 in0.0 mm
05:35 PM 47.1°F8.4°C 34.7°F1.5°C 62% 11.0 mph NE17.7 kmh NE 18.0 mph29.0 kmh 30.34 in1027.4 mb 0.00 in0.0 mm 0.00 in0.0 mm 0.00 in0.0 mm
05:40 PM 47.1°F8.4°C 35.1°F1.7°C 63% 10.8 mph NE17.4 kmh NE 18.0 mph29.0 kmh 30.34 in1027.4 mb 0.00 in0.0 mm 0.00 in0.0 mm 0.00 in0.0 mm
05:45 PM 47.2°F8.4°C 35.2°F1.8°C 63% 10.1 mph NE16.3 kmh NE 25.0 mph40.2 kmh 30.34 in1027.4 mb 0.00 in0.0 mm 0.00 in0.0 mm 0.00 in0.0 mm
05:50 PM 47.3°F8.5°C 35.3°F1.8°C 63% 9.8 mph NE15.8 kmh NE 25.0 mph40.2 kmh 30.34 in1027.4 mb 0.00 in0.0 mm 0.00 in0.0 mm 0.00 in0.0 mm
05:55 PM 47.2°F8.4°C 35.2°F1.8°C 63% 10.2 mph NE16.4 kmh NE 18.0 mph29.0 kmh 30.34 in1027.4 mb 0.00 in0.0 mm 0.00 in0.0 mm 0.00 in0.0 mm
06:00 PM 47.3°F8.5°C 35.3°F1.8°C 63% 10.5 mph NE16.9 kmh NE 23.0 mph37.0 kmh 30.34 in1027.4 mb 0.00 in0.0 mm 0.00 in0.0 mm 0.00 in0.0 mm
06:05 PM 47.4°F8.6°C 35.4°F1.9°C 63% 10.6 mph NE17.1 kmh NE 23.0 mph37.0 kmh 30.34 in1027.4 mb 0.00 in0.0 mm 0.00 in0.0 mm 0.00 in0.0 mm
06:10 PM 47.5°F8.6°C 35.5°F1.9°C 63% 10.9 mph NE17.5 kmh NE 18.0 mph29.0 kmh 30.34 in1027.4 mb 0.00 in0.0 mm 0.00 in0.0 mm 0.00 in0.0 mm
06:15 PM 47.5°F8.6°C 35.5°F1.9°C 63% 11.6 mph NE18.7 kmh NE 21.0 mph33.8 kmh 30.35 in1027.8 mb 0.00 in0.0 mm 0.00 in0.0 mm 0.00 in0.0 mm
06:20 PM 47.6°F8.7°C 35.6°F2.0°C 63% 11.7 mph NE18.8 kmh NE 23.0 mph37.0 kmh 30.34 in1027.4 mb 0.00 in0.0 mm 0.00 in0.0 mm 0.00 in0.0 mm
06:25 PM 47.6°F8.7°C 35.6°F2.0°C 63% 11.2 mph NE18.0 kmh NE 23.0 mph37.0 kmh 30.35 in1027.8 mb 0.00 in0.0 mm 0.00 in0.0 mm 0.00 in0.0 mm
06:30 PM 47.6°F8.7°C 35.6°F2.0°C 63% 11.2 mph NE18.0 kmh NE 21.0 mph33.8 kmh 30.35 in1027.8 mb 0.00 in0.0 mm 0.00 in0.0 mm 0.00 in0.0 mm
06:35 PM 47.6°F8.7°C 35.6°F2.0°C 63% 11.1 mph NE17.9 kmh NE 19.0 mph30.6 kmh 30.36 in1028.1 mb 0.00 in0.0 mm 0.00 in0.0 mm 0.00 in0.0 mm
06:40 PM 47.6°F8.7°C 35.6°F2.0°C 63% 10.5 mph NE16.9 kmh NE 19.0 mph30.6 kmh 30.36 in1028.1 mb 0.00 in0.0 mm 0.00 in0.0 mm 0.00 in0.0 mm
06:45 PM 47.6°F8.7°C 35.6°F2.0°C 63% 10.4 mph NE16.7 kmh NE 24.0 mph38.6 kmh 30.36 in1028.1 mb 0.00 in0.0 mm 0.00 in0.0 mm 0.00 in0.0 mm
06:50 PM 47.6°F8.7°C 35.6°F2.0°C 63% 10.6 mph NE17.1 kmh NE 24.0 mph38.6 kmh 30.36 in1028.1 mb 0.00 in0.0 mm 0.00 in0.0 mm 0.00 in0.0 mm
06:55 PM 47.7°F8.7°C 35.3°F1.8°C 62% 10.5 mph NE16.9 kmh NE 22.0 mph35.4 kmh 30.36 in1028.1 mb 0.00 in0.0 mm 0.00 in0.0 mm 0.00 in0.0 mm
07:00 PM 47.7°F8.7°C 35.3°F1.8°C 62% 10.7 mph NE17.2 kmh NE 25.0 mph40.2 kmh 30.36 in1028.1 mb 0.00 in0.0 mm 0.00 in0.0 mm 0.00 in0.0 mm
07:05 PM 47.8°F8.8°C 35.4°F1.9°C 62% 11.5 mph NE18.5 kmh NE 25.0 mph40.2 kmh 30.36 in1028.1 mb 0.00 in0.0 mm 0.00 in0.0 mm 0.00 in0.0 mm
07:10 PM 47.8°F8.8°C 35.4°F1.9°C 62% 11.9 mph NE19.2 kmh NE 21.0 mph33.8 kmh 30.37 in1028.4 mb 0.00 in0.0 mm 0.00 in0.0 mm 0.00 in0.0 mm
07:15 PM 47.9°F8.8°C 35.5°F1.9°C 62% 11.5 mph NE18.5 kmh NE 22.0 mph35.4 kmh 30.37 in1028.4 mb 0.00 in0.0 mm 0.00 in0.0 mm 0.00 in0.0 mm
07:20 PM 47.9°F8.8°C 35.1°F1.7°C 61% 11.6 mph NE18.7 kmh NE 23.0 mph37.0 kmh 30.38 in1028.8 mb 0.00 in0.0 mm 0.00 in0.0 mm 0.00 in0.0 mm
07:25 PM 47.9°F8.8°C 35.1°F1.7°C 61% 11.7 mph NE18.8 kmh NE 23.0 mph37.0 kmh 30.38 in1028.8 mb 0.00 in0.0 mm 0.00 in0.0 mm 0.00 in0.0 mm
07:30 PM 47.8°F8.8°C 35.0°F1.7°C 61% 10.4 mph NE16.7 kmh NE 16.0 mph25.7 kmh 30.38 in1028.8 mb 0.00 in0.0 mm 0.00 in0.0 mm 0.00 in0.0 mm
07:35 PM 47.8°F8.8°C 35.0°F1.7°C 61% 8.6 mph NE13.8 kmh NE 16.0 mph25.7 kmh 30.38 in1028.8 mb 0.00 in0.0 mm 0.00 in0.0 mm 0.00 in0.0 mm
07:40 PM 47.9°F8.8°C 35.1°F1.7°C 61% 7.5 mph NE12.1 kmh NE 16.0 mph25.7 kmh 30.39 in1029.1 mb 0.00 in0.0 mm 0.00 in0.0 mm 0.00 in0.0 mm
07:45 PM 47.9°F8.8°C 35.1°F1.7°C 61% 7.1 mph NE11.4 kmh NE 17.0 mph27.4 kmh 30.39 in1029.1 mb 0.00 in0.0 mm 0.00 in0.0 mm 0.00 in0.0 mm
07:50 PM 47.9°F8.8°C 34.7°F1.5°C 60% 7.5 mph NE12.1 kmh NE 17.0 mph27.4 kmh 30.38 in1028.8 mb 0.00 in0.0 mm 0.00 in0.0 mm 0.00 in0.0 mm
07:55 PM 47.9°F8.8°C 34.7°F1.5°C 60% 8.8 mph NE14.2 kmh NE 23.0 mph37.0 kmh 30.38 in1028.8 mb 0.00 in0.0 mm 0.00 in0.0 mm 0.00 in0.0 mm
08:00 PM 47.9°F8.8°C 34.7°F1.5°C 60% 10.0 mph NE16.1 kmh NE 23.0 mph37.0 kmh 30.38 in1028.8 mb 0.00 in0.0 mm 0.00 in0.0 mm 0.00 in0.0 mm
08:05 PM 47.9°F8.8°C 34.7°F1.5°C 60% 10.7 mph NE17.2 kmh NE 19.0 mph30.6 kmh 30.38 in1028.8 mb 0.00 in0.0 mm 0.00 in0.0 mm 0.00 in0.0 mm
08:10 PM 47.9°F8.8°C 34.7°F1.5°C 60% 11.1 mph NE17.9 kmh NE 22.0 mph35.4 kmh 30.38 in1028.8 mb 0.00 in0.0 mm 0.00 in0.0 mm 0.00 in0.0 mm
08:15 PM 47.9°F8.8°C 34.7°F1.5°C 60% 11.6 mph NE18.7 kmh NE 23.0 mph37.0 kmh 30.38 in1028.8 mb 0.00 in0.0 mm 0.00 in0.0 mm 0.00 in0.0 mm
08:20 PM 47.9°F8.8°C 34.7°F1.5°C 60% 12.0 mph NE19.3 kmh NE 23.0 mph37.0 kmh 30.38 in1028.8 mb 0.00 in0.0 mm 0.00 in0.0 mm 0.00 in0.0 mm
08:25 PM 47.9°F8.8°C 34.7°F1.5°C 60% 12.5 mph NE20.1 kmh NE 25.0 mph40.2 kmh 30.38 in1028.8 mb 0.00 in0.0 mm 0.00 in0.0 mm 0.00 in0.0 mm
08:30 PM 47.9°F8.8°C 34.7°F1.5°C 60% 13.3 mph NE21.4 kmh NE 25.0 mph40.2 kmh 30.38 in1028.8 mb 0.00 in0.0 mm 0.00 in0.0 mm 0.00 in0.0 mm
08:35 PM 47.9°F8.8°C 34.7°F1.5°C 60% 13.3 mph NE21.4 kmh NE 23.0 mph37.0 kmh 30.38 in1028.8 mb 0.00 in0.0 mm 0.00 in0.0 mm 0.00 in0.0 mm
08:40 PM 47.9°F8.8°C 34.3°F1.3°C 59% 12.9 mph NE20.8 kmh NE 23.0 mph37.0 kmh 30.39 in1029.1 mb 0.00 in0.0 mm 0.00 in0.0 mm 0.00 in0.0 mm
08:45 PM 47.9°F8.8°C 34.3°F1.3°C 59% 12.8 mph NE20.6 kmh NE 23.0 mph37.0 kmh 30.38 in1028.8 mb 0.00 in0.0 mm 0.00 in0.0 mm 0.00 in0.0 mm
08:50 PM 48.0°F8.9°C 34.3°F1.3°C 59% 13.2 mph NE21.2 kmh NE 24.0 mph38.6 kmh 30.39 in1029.1 mb 0.00 in0.0 mm 0.00 in0.0 mm 0.00 in0.0 mm
08:55 PM 47.9°F8.8°C 34.3°F1.3°C 59% 14.2 mph NE22.9 kmh NE 25.0 mph40.2 kmh 30.39 in1029.1 mb 0.00 in0.0 mm 0.00 in0.0 mm 0.00 in0.0 mm
09:00 PM 47.9°F8.8°C 34.3°F1.3°C 59% 14.9 mph NE24.0 kmh NE 25.0 mph40.2 kmh 30.38 in1028.8 mb 0.00 in0.0 mm 0.00 in0.0 mm 0.00 in0.0 mm
09:05 PM 47.9°F8.8°C 34.3°F1.3°C 59% 14.7 mph NE23.7 kmh NE 23.0 mph37.0 kmh 30.39 in1029.1 mb 0.00 in0.0 mm 0.00 in0.0 mm 0.00 in0.0 mm
09:10 PM 47.8°F8.8°C 34.2°F1.2°C 59% 13.9 mph NE22.4 kmh NE 21.0 mph33.8 kmh 30.39 in1029.1 mb 0.00 in0.0 mm 0.00 in0.0 mm 0.00 in0.0 mm
09:15 PM 47.8°F8.8°C 34.2°F1.2°C 59% 12.6 mph NE20.3 kmh NE 22.0 mph35.4 kmh 30.39 in1029.1 mb 0.00 in0.0 mm 0.00 in0.0 mm 0.00 in0.0 mm
09:20 PM 47.7°F8.7°C 34.1°F1.2°C 59% 11.6 mph NE18.7 kmh NE 22.0 mph35.4 kmh 30.39 in1029.1 mb 0.00 in0.0 mm 0.00 in0.0 mm 0.00 in0.0 mm
09:25 PM 47.8°F8.8°C 34.2°F1.2°C 59% 11.8 mph NE19.0 kmh NE 22.0 mph35.4 kmh 30.40 in1029.5 mb 0.00 in0.0 mm 0.00 in0.0 mm 0.00 in0.0 mm
09:30 PM 47.8°F8.8°C 34.2°F1.2°C 59% 12.1 mph NE19.5 kmh NE 22.0 mph35.4 kmh 30.40 in1029.5 mb 0.00 in0.0 mm 0.00 in0.0 mm 0.00 in0.0 mm
09:35 PM 47.8°F8.8°C 34.2°F1.2°C 59% 11.8 mph NE19.0 kmh NE 22.0 mph35.4 kmh 30.40 in1029.5 mb 0.00 in0.0 mm 0.00 in0.0 mm 0.00 in0.0 mm
09:40 PM 47.8°F8.8°C 34.2°F1.2°C 59% 11.7 mph NE18.8 kmh NE 25.0 mph40.2 kmh 30.40 in1029.5 mb 0.00 in0.0 mm 0.00 in0.0 mm 0.00 in0.0 mm
09:45 PM 47.8°F8.8°C 34.2°F1.2°C 59% 11.4 mph NE18.3 kmh NE 25.0 mph40.2 kmh 30.41 in1029.8 mb 0.00 in0.0 mm 0.00 in0.0 mm 0.00 in0.0 mm
09:50 PM 47.9°F8.8°C 33.8°F1.0°C 58% 10.3 mph NE16.6 kmh NE 24.0 mph38.6 kmh 30.41 in1029.8 mb 0.00 in0.0 mm 0.00 in0.0 mm 0.00 in0.0 mm
09:55 PM 47.9°F8.8°C 33.8°F1.0°C 58% 10.7 mph NE17.2 kmh NE 24.0 mph38.6 kmh 30.40 in1029.5 mb 0.00 in0.0 mm 0.00 in0.0 mm 0.00 in0.0 mm
10:00 PM 47.9°F8.8°C 33.8°F1.0°C 58% 12.9 mph NE20.8 kmh NE 27.0 mph43.5 kmh 30.40 in1029.5 mb 0.00 in0.0 mm 0.00 in0.0 mm 0.00 in0.0 mm
10:05 PM 47.9°F8.8°C 34.3°F1.3°C 59% 14.3 mph NE23.0 kmh NE 27.0 mph43.5 kmh 30.41 in1029.8 mb 0.00 in0.0 mm 0.00 in0.0 mm 0.00 in0.0 mm
10:10 PM 47.8°F8.8°C 34.2°F1.2°C 59% 14.8 mph NE23.8 kmh NE 27.0 mph43.5 kmh 30.41 in1029.8 mb 0.00 in0.0 mm 0.00 in0.0 mm 0.00 in0.0 mm
10:15 PM 47.8°F8.8°C 34.2°F1.2°C 59% 15.1 mph NE24.3 kmh NE 28.0 mph45.1 kmh 30.41 in1029.8 mb 0.00 in0.0 mm 0.00 in0.0 mm 0.00 in0.0 mm
10:20 PM 47.8°F8.8°C 33.7°F0.9°C 58% 15.4 mph NE24.8 kmh NE 28.0 mph45.1 kmh 30.41 in1029.8 mb 0.00 in0.0 mm 0.00 in0.0 mm 0.00 in0.0 mm
10:25 PM 47.9°F8.8°C 33.4°F0.8°C 57% 15.5 mph NE24.9 kmh NE 29.0 mph46.7 kmh 30.41 in1029.8 mb 0.00 in0.0 mm 0.00 in0.0 mm 0.00 in0.0 mm
10:30 PM 47.8°F8.8°C 33.3°F0.7°C 57% 15.5 mph NE24.9 kmh NE 29.0 mph46.7 kmh 30.41 in1029.8 mb 0.00 in0.0 mm 0.00 in0.0 mm 0.00 in0.0 mm
10:35 PM 47.8°F8.8°C 33.7°F0.9°C 58% 15.9 mph NE25.6 kmh NE 27.0 mph43.5 kmh 30.42 in1030.1 mb 0.00 in0.0 mm 0.00 in0.0 mm 0.00 in0.0 mm
10:40 PM 47.8°F8.8°C 33.7°F0.9°C 58% 16.2 mph NE26.1 kmh NE 27.0 mph43.5 kmh 30.42 in1030.1 mb 0.00 in0.0 mm 0.00 in0.0 mm 0.00 in0.0 mm
10:45 PM 47.7°F8.7°C 33.6°F0.9°C 58% 15.8 mph NE25.4 kmh NE 27.0 mph43.5 kmh 30.43 in1030.5 mb 0.00 in0.0 mm 0.00 in0.0 mm 0.00 in0.0 mm
10:50 PM 47.7°F8.7°C 33.6°F0.9°C 58% 14.7 mph NE23.7 kmh NE 25.0 mph40.2 kmh 30.43 in1030.5 mb 0.00 in0.0 mm 0.00 in0.0 mm 0.00 in0.0 mm
10:55 PM 47.6°F8.7°C 34.0°F1.1°C 59% 14.2 mph NE22.9 kmh NE 27.0 mph43.5 kmh 30.43 in1030.5 mb 0.00 in0.0 mm 0.00 in0.0 mm 0.00 in0.0 mm
11:00 PM 47.5°F8.6°C 33.9°F1.1°C 59% 14.5 mph NE23.3 kmh NE 27.0 mph43.5 kmh 30.43 in1030.5 mb 0.00 in0.0 mm 0.00 in0.0 mm 0.00 in0.0 mm
11:05 PM 47.5°F8.6°C 33.9°F1.1°C 59% 13.9 mph NE22.4 kmh NE 24.0 mph38.6 kmh 30.43 in1030.5 mb 0.00 in0.0 mm 0.00 in0.0 mm 0.00 in0.0 mm
11:10 PM 47.5°F8.6°C 33.9°F1.1°C 59% 13.5 mph NE21.7 kmh NE 25.0 mph40.2 kmh 30.43 in1030.5 mb 0.00 in0.0 mm 0.00 in0.0 mm 0.00 in0.0 mm
11:15 PM 47.4°F8.6°C 34.2°F1.2°C 60% 14.5 mph NE23.3 kmh NE 25.0 mph40.2 kmh 30.44 in1030.8 mb 0.00 in0.0 mm 0.00 in0.0 mm 0.00 in0.0 mm
11:20 PM 47.3°F8.5°C 34.1°F1.2°C 60% 14.7 mph NE23.7 kmh NE 25.0 mph40.2 kmh 30.43 in1030.5 mb 0.00 in0.0 mm 0.00 in0.0 mm 0.00 in0.0 mm
11:25 PM 47.2°F8.4°C 34.4°F1.3°C 61% 13.6 mph NE21.9 kmh NE 24.0 mph38.6 kmh 30.43 in1030.5 mb 0.00 in0.0 mm 0.00 in0.0 mm 0.00 in0.0 mm
11:30 PM 47.3°F8.5°C 34.5°F1.4°C 61% 13.1 mph NE21.1 kmh NE 24.0 mph38.6 kmh 30.44 in1030.8 mb 0.00 in0.0 mm 0.00 in0.0 mm 0.00 in0.0 mm
11:35 PM 47.2°F8.4°C 34.4°F1.3°C 61% 13.6 mph NE21.9 kmh NE 23.0 mph37.0 kmh 30.44 in1030.8 mb 0.00 in0.0 mm 0.00 in0.0 mm 0.00 in0.0 mm
11:40 PM 47.3°F8.5°C 34.5°F1.4°C 61% 14.3 mph NE23.0 kmh NE 25.0 mph40.2 kmh 30.44 in1030.8 mb 0.00 in0.0 mm 0.00 in0.0 mm 0.00 in0.0 mm
11:45 PM 47.2°F8.4°C 34.8°F1.6°C 62% 14.8 mph NE23.8 kmh NE 26.0 mph41.8 kmh 30.44 in1030.8 mb 0.00 in0.0 mm 0.00 in0.0 mm 0.00 in0.0 mm
11:50 PM 47.3°F8.5°C 34.5°F1.4°C 61% 14.6 mph NE23.5 kmh NE 27.0 mph43.5 kmh 30.44 in1030.8 mb 0.00 in0.0 mm 0.00 in0.0 mm 0.00 in0.0 mm
11:55 PM 47.2°F8.4°C 34.8°F1.6°C 62% 14.1 mph NE22.7 kmh NE 27.0 mph43.5 kmh 30.44 in1030.8 mb 0.00 in0.0 mm 0.00 in0.0 mm 0.00 in0.0 mm